»·PEaware :: DAL2595 KPDX-KSEA

DAL2595 :: KPDX-KSEA

FLIGHT INFORMATION

Flight Status: Arrived
Operator:
Delta Air Lines
More flights by this operator :: More flights under this callsign
Pilot: Jac C. (16067)
Aircraft: MCDONNELL-DOUGLAS MD-88
(MD88)
More flights by this aircraft type
Origin: KPDX Portland Intl
United States
Destination: KSEA Seattle-Tacoma Intl
United States
More flights between these airports :: More routes between these airports
Route: +PTLD1 COUGA KRIEG HAWKZ6
File this flight plan on PilotEdge
Remarks:
Altitude:
(Current/Filed)
14,000ft
Speed:
(Current/Filed)
346kts
Departed: 16-Feb-18 02:41 PM
Arrived: 16-Feb-18 03:20 PM
Distance/Time
Traveled:
112nm/0:38
Distance/Time
To Go:
Arrived

Flight Plot

Page will automatically refresh every two minutes.

Flight plan parsing failed; only flown route is shown


Map Options




Map Legend


Flown Route
Filed Route
Departure Airport
Arrival Airport
Navaid (VOR, NDB)
Fix

Horizontal Profiles

Position Reports

Time Latitude Longitude Heading Altitude Ground
Speed
16-Feb-18 14:10 45.591628 -122.595180 194 36ft 0kts
16-Feb-18 14:11 45.591628 -122.595180 194 36ft 0kts
16-Feb-18 14:12 45.591628 -122.595180 194 36ft 0kts
16-Feb-18 14:13 45.591628 -122.595180 194 36ft 0kts
16-Feb-18 14:14 45.591628 -122.595180 194 36ft 0kts
16-Feb-18 14:15 45.591628 -122.595180 194 36ft 0kts
16-Feb-18 14:16 45.591628 -122.595180 194 36ft 0kts
16-Feb-18 14:17 45.591628 -122.595180 194 36ft 0kts
16-Feb-18 14:18 45.591628 -122.595180 194 36ft 0kts
16-Feb-18 14:19 45.591628 -122.595180 194 36ft 0kts
16-Feb-18 14:20 45.591628 -122.595180 194 36ft 0kts
16-Feb-18 14:21 45.591628 -122.595180 194 36ft 0kts
16-Feb-18 14:22 45.591628 -122.595180 194 36ft 0kts
16-Feb-18 14:23 45.591628 -122.595180 194 36ft 0kts
16-Feb-18 14:24 45.591628 -122.595180 194 36ft 0kts
16-Feb-18 14:25 45.591628 -122.595180 194 35ft 0kts
16-Feb-18 14:26 45.591628 -122.595180 194 35ft 0kts
16-Feb-18 14:27 45.591628 -122.595180 194 35ft 0kts
16-Feb-18 14:28 45.591628 -122.595180 194 35ft 0kts
16-Feb-18 14:29 45.591628 -122.595180 194 35ft 0kts
16-Feb-18 14:30 45.591628 -122.595180 194 35ft 0kts
16-Feb-18 14:31 45.591628 -122.595180 194 35ft 0kts
16-Feb-18 14:32 45.591628 -122.595180 194 35ft 0kts
16-Feb-18 14:33 45.591628 -122.595180 194 35ft 0kts
16-Feb-18 14:34 45.591628 -122.595180 194 35ft 0kts
16-Feb-18 14:35 45.591628 -122.595180 194 35ft 0kts
16-Feb-18 14:36 45.591628 -122.595180 194 35ft 0kts
16-Feb-18 14:37 45.591849 -122.595095 194 35ft 2kts
16-Feb-18 14:38 45.592379 -122.594990 154 35ft 2kts
16-Feb-18 14:39 45.592573 -122.595271 118 35ft 0kts
16-Feb-18 14:40 45.592573 -122.595271 118 35ft 0kts
16-Feb-18 14:41 45.592252 -122.594452 119 35ft 10kts
16-Feb-18 14:42 45.590425 -122.589772 119 35ft 12kts
16-Feb-18 14:43 45.589476 -122.585223 114 35ft 10kts
16-Feb-18 14:44 45.588001 -122.581562 130 35ft 13kts
16-Feb-18 14:45 45.586086 -122.576485 118 35ft 13kts
16-Feb-18 14:46 45.583748 -122.570493 118 35ft 16kts
16-Feb-18 14:47 45.582779 -122.567397 61 35ft 5kts
16-Feb-18 14:48 45.588481 -122.579419 297 35ft 127kts
16-Feb-18 14:49 45.611894 -122.632489 297 1625ft 198kts
16-Feb-18 14:50 45.645271 -122.715387 298 4535ft 257kts
16-Feb-18 14:51 45.693221 -122.787443 0 7972ft 283kts
16-Feb-18 14:52 45.772546 -122.750471 357 10622ft 321kts
16-Feb-18 14:53 45.860957 -122.739655 0 13901ft 315kts
16-Feb-18 14:54 45.947247 -122.717499 3 13933ft 317kts
16-Feb-18 14:55 46.033475 -122.693564 3 13931ft 317kts
16-Feb-18 14:56 46.118567 -122.676639 343 13942ft 304kts
16-Feb-18 14:57 46.201815 -122.697277 346 13965ft 304kts
16-Feb-18 14:58 46.285861 -122.714893 346 14085ft 306kts
16-Feb-18 14:59 46.369782 -122.723967 352 14076ft 293kts
16-Feb-18 15:00 46.450069 -122.726784 351 14011ft 288kts
16-Feb-18 15:01 46.530100 -122.729715 351 14001ft 288kts
16-Feb-18 15:02 46.609931 -122.732628 351 14000ft 287kts
16-Feb-18 15:03 46.689802 -122.735592 351 14000ft 288kts
16-Feb-18 15:04 46.769786 -122.737859 357 13997ft 292kts
16-Feb-18 15:05 46.844532 -122.670327 31 13979ft 342kts
16-Feb-18 15:06 46.912987 -122.590488 28 13618ft 297kts
16-Feb-18 15:07 46.982409 -122.540584 6 12634ft 271kts
16-Feb-18 15:08 47.052198 -122.511531 7 11279ft 258kts
16-Feb-18 15:09 47.120909 -122.492099 358 10728ft 253kts
16-Feb-18 15:10 47.191310 -122.479630 358 10477ft 254kts
16-Feb-18 15:11 47.259754 -122.469313 357 9402ft 245kts
16-Feb-18 15:12 47.328264 -122.458902 358 8347ft 252kts
16-Feb-18 15:13 47.398987 -122.455037 357 7302ft 259kts
16-Feb-18 15:14 47.468889 -122.455198 358 6411ft 239kts
16-Feb-18 15:15 47.534297 -122.453567 4 5909ft 235kts
16-Feb-18 15:16 47.599237 -122.444127 5 4981ft 234kts
16-Feb-18 15:17 47.663245 -122.434763 5 4109ft 226kts
16-Feb-18 15:18 47.725966 -122.425578 5 3975ft 228kts
16-Feb-18 15:19 47.770867 -122.381078 94 4008ft 221kts
16-Feb-18 15:20 47.742169 -122.314183 155 3978ft 208kts
16-Feb-18 15:21 47.689830 -122.301513 187 3950ft 182kts
16-Feb-18 15:22 47.641047 -122.306376 181 3865ft 177kts
16-Feb-18 15:23 47.592865 -122.306680 182 2956ft 172kts
16-Feb-18 15:24 47.549538 -122.307053 182 2053ft 133kts
16-Feb-18 15:25 47.514702 -122.307374 182 1456ft 135kts
16-Feb-18 15:26 47.478397 -122.307538 184 790ft 129kts
16-Feb-18 15:27 47.451043 -122.307846 179 411ft 13kts
16-Feb-18 15:28 47.449329 -122.305860 193 404ft 15kts
16-Feb-18 15:29 47.445557 -122.305161 89 392ft 9kts

Navigation Log

Ident Type
Flight plan parsing failed, navigation log unavailable